sensor_id;sensor_type;location;lat;lon;timestamp;pressure;altitude;pressure_sealevel;temperature;humidity
67980;BME280;54760;47.490;19.030;2023-04-30T00:01:19;99959.53;;;14.98;58.92
67980;BME280;54760;47.490;19.030;2023-04-30T00:03:44;99964.25;;;14.66;60.12
67980;BME280;54760;47.490;19.030;2023-04-30T00:06:10;99962.00;;;14.74;60.14
67980;BME280;54760;47.490;19.030;2023-04-30T00:08:35;99957.94;;;14.88;59.67
67980;BME280;54760;47.490;19.030;2023-04-30T00:11:00;99956.63;;;14.70;60.06
67980;BME280;54760;47.490;19.030;2023-04-30T00:13:26;99958.38;;;14.55;60.58
67980;BME280;54760;47.490;19.030;2023-04-30T00:15:51;99959.09;;;14.34;61.34
67980;BME280;54760;47.490;19.030;2023-04-30T00:18:16;99958.22;;;14.37;61.27
67980;BME280;54760;47.490;19.030;2023-04-30T00:20:42;99960.44;;;14.29;61.58
67980;BME280;54760;47.490;19.030;2023-04-30T00:23:07;99955.91;;;14.36;61.62
67980;BME280;54760;47.490;19.030;2023-04-30T00:25:34;99960.50;;;14.17;62.35
67980;BME280;54760;47.490;19.030;2023-04-30T00:27:59;99960.50;;;14.17;62.55
67980;BME280;54760;47.490;19.030;2023-04-30T00:30:25;99954.31;;;14.13;62.67
67980;BME280;54760;47.490;19.030;2023-04-30T00:32:50;99959.81;;;14.47;61.31
67980;BME280;54760;47.490;19.030;2023-04-30T00:35:16;99957.63;;;14.08;62.61
67980;BME280;54760;47.490;19.030;2023-04-30T00:37:41;99961.13;;;14.21;61.83
67980;BME280;54760;47.490;19.030;2023-04-30T00:40:07;99963.28;;;14.04;62.27
67980;BME280;54760;47.490;19.030;2023-04-30T00:42:32;99962.34;;;13.85;63.09
67980;BME280;54760;47.490;19.030;2023-04-30T00:44:58;99956.91;;;13.95;62.66
67980;BME280;54760;47.490;19.030;2023-04-30T00:47:23;99960.25;;;13.77;63.42
67980;BME280;54760;47.490;19.030;2023-04-30T00:49:49;99962.00;;;13.83;63.26
67980;BME280;54760;47.490;19.030;2023-04-30T00:52:14;99959.62;;;13.73;63.54
67980;BME280;54760;47.490;19.030;2023-04-30T00:54:40;99957.31;;;13.46;64.50
67980;BME280;54760;47.490;19.030;2023-04-30T00:57:06;99955.66;;;13.61;64.12
67980;BME280;54760;47.490;19.030;2023-04-30T00:59:33;99952.81;;;13.52;64.47
67980;BME280;54760;47.490;19.030;2023-04-30T01:01:59;99962.06;;;13.33;65.32
67980;BME280;54760;47.490;19.030;2023-04-30T01:04:25;99947.63;;;13.54;64.24
67980;BME280;54760;47.490;19.030;2023-04-30T01:06:51;99956.13;;;13.47;64.74
67980;BME280;54760;47.490;19.030;2023-04-30T01:09:16;99946.97;;;13.50;64.50
67980;BME280;54760;47.490;19.030;2023-04-30T01:15:08;99940.28;;;13.51;64.75
67980;BME280;54760;47.490;19.030;2023-04-30T01:20:20;99950.25;;;13.70;64.08
67980;BME280;54760;47.490;19.030;2023-04-30T01:28:17;99946.19;;;13.50;64.80
67980;BME280;54760;47.490;19.030;2023-04-30T01:30:44;99960.97;;;13.43;64.72
67980;BME280;54760;47.490;19.030;2023-04-30T01:33:11;99950.94;;;13.36;64.72
67980;BME280;54760;47.490;19.030;2023-04-30T01:41:32;99954.41;;;12.86;66.70
67980;BME280;54760;47.490;19.030;2023-04-30T01:46:56;99957.41;;;13.05;66.31
67980;BME280;54760;47.490;19.030;2023-04-30T01:49:29;99961.91;;;12.98;66.26
67980;BME280;54760;47.490;19.030;2023-04-30T01:52:07;99963.44;;;12.99;66.39
67980;BME280;54760;47.490;19.030;2023-04-30T01:54:56;99961.97;;;13.24;65.44
67980;BME280;54760;47.490;19.030;2023-04-30T01:57:28;99958.97;;;13.31;65.05
67980;BME280;54760;47.490;19.030;2023-04-30T01:59:56;99954.59;;;13.33;65.26
67980;BME280;54760;47.490;19.030;2023-04-30T02:02:22;99964.38;;;13.22;65.70
67980;BME280;54760;47.490;19.030;2023-04-30T02:04:47;99961.03;;;13.01;66.83
67980;BME280;54760;47.490;19.030;2023-04-30T02:07:19;99959.06;;;13.15;66.44
67980;BME280;54760;47.490;19.030;2023-04-30T02:09:49;99952.47;;;13.25;66.10
67980;BME280;54760;47.490;19.030;2023-04-30T02:12:15;99948.72;;;13.44;65.31
67980;BME280;54760;47.490;19.030;2023-04-30T02:14:40;99945.03;;;13.38;65.20
67980;BME280;54760;47.490;19.030;2023-04-30T02:17:05;99949.28;;;13.39;64.46
67980;BME280;54760;47.490;19.030;2023-04-30T02:19:31;99942.81;;;13.33;64.52
67980;BME280;54760;47.490;19.030;2023-04-30T02:21:56;99945.03;;;13.38;64.22
67980;BME280;54760;47.490;19.030;2023-04-30T02:24:21;99951.62;;;13.28;64.35
67980;BME280;54760;47.490;19.030;2023-04-30T02:26:47;99956.78;;;13.38;63.87
67980;BME280;54760;47.490;19.030;2023-04-30T02:29:12;99959.62;;;13.22;64.37
67980;BME280;54760;47.490;19.030;2023-04-30T02:31:38;99951.81;;;13.08;65.18
67980;BME280;54760;47.490;19.030;2023-04-30T02:34:03;99956.84;;;13.10;65.11
67980;BME280;54760;47.490;19.030;2023-04-30T02:36:28;99959.06;;;13.15;65.17
67980;BME280;54760;47.490;19.030;2023-04-30T02:38:57;99953.97;;;13.00;65.35
67980;BME280;54760;47.490;19.030;2023-04-30T02:41:23;99952.09;;;12.85;66.02
67980;BME280;54760;47.490;19.030;2023-04-30T02:43:48;99957.25;;;12.95;65.89
67980;BME280;54760;47.490;19.030;2023-04-30T02:46:13;99958.94;;;13.06;65.28
67980;BME280;54760;47.490;19.030;2023-04-30T02:48:39;99962.44;;;12.93;65.82
67980;BME280;54760;47.490;19.030;2023-04-30T02:51:04;99965.16;;;12.81;66.32
67980;BME280;54760;47.490;19.030;2023-04-30T02:53:30;99964.53;;;12.89;66.21
67980;BME280;54760;47.490;19.030;2023-04-30T02:55:55;99963.44;;;12.99;65.78
67980;BME280;54760;47.490;19.030;2023-04-30T02:58:20;99966.62;;;13.11;65.25
67980;BME280;54760;47.490;19.030;2023-04-30T03:00:46;99972.78;;;12.89;66.23
67980;BME280;54760;47.490;19.030;2023-04-30T03:03:11;99979.06;;;12.61;67.20
67980;BME280;54760;47.490;19.030;2023-04-30T03:05:37;99976.38;;;12.45;68.30
67980;BME280;54760;47.490;19.030;2023-04-30T03:08:02;99980.28;;;12.60;67.63
67980;BME280;54760;47.490;19.030;2023-04-30T03:10:27;99973.03;;;12.66;67.25
67980;BME280;54760;47.490;19.030;2023-04-30T03:12:53;99963.59;;;12.67;67.38
67980;BME280;54760;47.490;19.030;2023-04-30T03:15:18;99962.97;;;12.88;66.57
67980;BME280;54760;47.490;19.030;2023-04-30T03:17:44;99964.41;;;12.93;66.83
67980;BME280;54760;47.490;19.030;2023-04-30T03:20:10;99960.81;;;13.09;66.00
67980;BME280;54760;47.490;19.030;2023-04-30T03:22:35;99959.91;;;12.86;67.02
67980;BME280;54760;47.490;19.030;2023-04-30T03:25:00;99964.25;;;12.71;67.65
67980;BME280;54760;47.490;19.030;2023-04-30T03:27:26;99961.56;;;12.96;67.06
67980;BME280;54760;47.490;19.030;2023-04-30T03:29:51;99968.00;;;12.77;67.77
67980;BME280;54760;47.490;19.030;2023-04-30T03:32:17;99964.41;;;12.80;67.73
67980;BME280;54760;47.490;19.030;2023-04-30T03:34:42;99957.78;;;12.78;68.18
67980;BME280;54760;47.490;19.030;2023-04-30T03:37:07;99961.44;;;12.87;67.63
67980;BME280;54760;47.490;19.030;2023-04-30T03:39:33;99964.72;;;12.82;68.07
67980;BME280;54760;47.490;19.030;2023-04-30T03:41:58;99957.28;;;13.08;67.45
67980;BME280;54760;47.490;19.030;2023-04-30T03:44:24;99969.09;;;12.67;68.61
67980;BME280;54760;47.490;19.030;2023-04-30T03:46:49;99969.09;;;12.67;69.15
67980;BME280;54760;47.490;19.030;2023-04-30T03:49:15;99964.94;;;12.46;69.77
67980;BME280;54760;47.490;19.030;2023-04-30T03:51:40;99965.19;;;12.93;71.01
67980;BME280;54760;47.490;19.030;2023-04-30T03:54:06;99963.34;;;13.03;71.24
67980;BME280;54760;47.490;19.030;2023-04-30T03:56:33;99960.34;;;13.10;72.65
67980;BME280;54760;47.490;19.030;2023-04-30T03:58:59;99965.81;;;13.14;73.19
67980;BME280;54760;47.490;19.030;2023-04-30T04:01:24;99975.28;;;12.96;74.56
67980;BME280;54760;47.490;19.030;2023-04-30T04:03:50;99967.50;;;13.08;74.59
67980;BME280;54760;47.490;19.030;2023-04-30T04:06:15;99976.53;;;13.08;74.92
67980;BME280;54760;47.490;19.030;2023-04-30T04:08:41;99970.06;;;13.15;74.68
67980;BME280;54760;47.490;19.030;2023-04-30T04:11:10;99975.56;;;13.15;75.22
67980;BME280;54760;47.490;19.030;2023-04-30T04:13:36;99975.00;;;13.20;75.41
67980;BME280;54760;47.490;19.030;2023-04-30T04:16:01;99988.91;;;13.29;75.14
67980;BME280;54760;47.490;19.030;2023-04-30T04:18:27;99987.13;;;13.22;75.56
67980;BME280;54760;47.490;19.030;2023-04-30T04:20:54;99996.13;;;13.35;75.13
67980;BME280;54760;47.490;19.030;2023-04-30T04:23:20;99992.63;;;13.48;74.79
67980;BME280;54760;47.490;19.030;2023-04-30T04:25:45;99994.72;;;13.43;75.21
67980;BME280;54760;47.490;19.030;2023-04-30T04:28:14;99998.34;;;13.40;75.62
67980;BME280;54760;47.490;19.030;2023-04-30T04:30:40;100002.97;;;13.43;75.45
67980;BME280;54760;47.490;19.030;2023-04-30T04:33:05;100008.47;;;13.43;75.51
67980;BME280;54760;47.490;19.030;2023-04-30T04:35:31;100006.59;;;13.53;75.31
67980;BME280;54760;47.490;19.030;2023-04-30T04:37:56;100009.91;;;13.48;75.80
67980;BME280;54760;47.490;19.030;2023-04-30T04:40:21;100015.19;;;13.42;75.89
67980;BME280;54760;47.490;19.030;2023-04-30T04:42:48;100023.00;;;13.57;75.57
67980;BME280;54760;47.490;19.030;2023-04-30T04:45:15;100017.38;;;13.60;75.47
67980;BME280;54760;47.490;19.030;2023-04-30T04:47:41;100024.53;;;13.58;75.61
67980;BME280;54760;47.490;19.030;2023-04-30T04:50:06;100023.97;;;13.50;75.90
67980;BME280;54760;47.490;19.030;2023-04-30T04:52:32;100036.19;;;13.62;75.63
67980;BME280;54760;47.490;19.030;2023-04-30T04:54:57;100038.72;;;13.56;76.02
67980;BME280;54760;47.490;19.030;2023-04-30T04:57:23;100033.00;;;13.63;75.86
67980;BME280;54760;47.490;19.030;2023-04-30T04:59:48;100035.31;;;13.65;75.85
67980;BME280;54760;47.490;19.030;2023-04-30T05:02:13;100029.47;;;13.75;75.30
67980;BME280;54760;47.490;19.030;2023-04-30T05:04:39;100036.84;;;13.78;75.12
67980;BME280;54760;47.490;19.030;2023-04-30T05:07:05;100039.06;;;13.71;75.68
67980;BME280;54760;47.490;19.030;2023-04-30T05:09:32;100045.09;;;13.78;75.46
67980;BME280;54760;47.490;19.030;2023-04-30T05:11:57;100053.47;;;13.87;75.22
67980;BME280;54760;47.490;19.030;2023-04-30T05:14:23;100053.22;;;13.95;74.78
67980;BME280;54760;47.490;19.030;2023-04-30T05:16:48;100053.34;;;13.91;75.03
67980;BME280;54760;47.490;19.030;2023-04-30T05:19:14;100057.19;;;13.94;75.01
67980;BME280;54760;47.490;19.030;2023-04-30T05:21:39;100054.88;;;13.79;75.27
67980;BME280;54760;47.490;19.030;2023-04-30T05:24:05;100061.81;;;13.84;75.23
67980;BME280;54760;47.490;19.030;2023-04-30T05:26:30;100061.03;;;13.83;75.39
67980;BME280;54760;47.490;19.030;2023-04-30T05:28:56;100056.75;;;13.95;74.68
67980;BME280;54760;47.490;19.030;2023-04-30T05:31:21;100064.34;;;14.04;74.41
67980;BME280;54760;47.490;19.030;2023-04-30T05:33:47;100071.47;;;14.14;74.12
67980;BME280;54760;47.490;19.030;2023-04-30T05:36:12;100057.22;;;14.28;73.26
67980;BME280;54760;47.490;19.030;2023-04-30T05:38:38;100064.19;;;14.67;72.09
67980;BME280;54760;47.490;19.030;2023-04-30T05:41:03;100063.66;;;15.77;67.80
67980;BME280;54760;47.490;19.030;2023-04-30T05:43:29;100061.06;;;16.32;64.87
67980;BME280;54760;47.490;19.030;2023-04-30T05:45:54;100059.41;;;16.89;62.61
67980;BME280;54760;47.490;19.030;2023-04-30T05:48:20;100070.72;;;17.18;60.94
67980;BME280;54760;47.490;19.030;2023-04-30T05:50:45;100069.31;;;17.32;60.31
67980;BME280;54760;47.490;19.030;2023-04-30T05:53:12;100065.56;;;16.66;62.32
67980;BME280;54760;47.490;19.030;2023-04-30T05:55:37;100071.44;;;16.19;64.27
67980;BME280;54760;47.490;19.030;2023-04-30T05:58:03;100067.31;;;15.74;66.12
67980;BME280;54760;47.490;19.030;2023-04-30T06:00:28;100060.44;;;15.79;65.84
67980;BME280;54760;47.490;19.030;2023-04-30T06:02:54;100065.09;;;15.91;65.20
67980;BME280;54760;47.490;19.030;2023-04-30T06:05:19;100065.44;;;16.02;64.88
67980;BME280;54760;47.490;19.030;2023-04-30T06:07:45;100071.09;;;16.75;62.56
67980;BME280;54760;47.490;19.030;2023-04-30T06:10:10;100065.41;;;16.78;62.08
67980;BME280;54760;47.490;19.030;2023-04-30T06:12:36;100069.38;;;16.68;62.59
67980;BME280;54760;47.490;19.030;2023-04-30T06:15:02;100077.34;;;17.03;61.24
67980;BME280;54760;47.490;19.030;2023-04-30T06:17:28;100070.44;;;17.07;61.40
67980;BME280;54760;47.490;19.030;2023-04-30T06:19:53;100072.03;;;17.59;59.29
67980;BME280;54760;47.490;19.030;2023-04-30T06:22:19;100074.91;;;17.14;59.92
67980;BME280;54760;47.490;19.030;2023-04-30T06:24:44;100068.59;;;17.04;60.13
67980;BME280;54760;47.490;19.030;2023-04-30T06:27:09;100068.88;;;17.24;60.28
67980;BME280;54760;47.490;19.030;2023-04-30T06:29:35;100073.88;;;17.95;58.10
67980;BME280;54760;47.490;19.030;2023-04-30T06:32:00;100057.13;;;20.08;51.75
67980;BME280;54760;47.490;19.030;2023-04-30T06:34:26;100048.09;;;21.51;46.34
67980;BME280;54760;47.490;19.030;2023-04-30T06:36:51;100054.00;;;21.07;47.48
67980;BME280;54760;47.490;19.030;2023-04-30T06:39:16;100070.34;;;19.04;52.43
67980;BME280;54760;47.490;19.030;2023-04-30T06:41:42;100078.56;;;18.13;55.31
67980;BME280;54760;47.490;19.030;2023-04-30T06:44:08;100072.88;;;17.74;57.39
67980;BME280;54760;47.490;19.030;2023-04-30T06:46:33;100076.56;;;17.81;57.48
67980;BME280;54760;47.490;19.030;2023-04-30T06:48:59;100069.72;;;17.58;57.60
67980;BME280;54760;47.490;19.030;2023-04-30T06:51:26;100066.63;;;17.56;57.48
67980;BME280;54760;47.490;19.030;2023-04-30T06:53:52;100075.25;;;17.58;56.95
67980;BME280;54760;47.490;19.030;2023-04-30T06:56:17;100061.72;;;17.60;57.20
67980;BME280;54760;47.490;19.030;2023-04-30T06:58:43;100066.63;;;17.56;57.10
67980;BME280;54760;47.490;19.030;2023-04-30T07:01:09;100060.00;;;17.02;57.16
67980;BME280;54760;47.490;19.030;2023-04-30T07:03:35;100072.62;;;16.94;57.70
67980;BME280;54760;47.490;19.030;2023-04-30T07:06:00;100065.38;;;17.06;57.08
67980;BME280;54760;47.490;19.030;2023-04-30T07:08:26;100068.00;;;17.09;57.21
67980;BME280;54760;47.490;19.030;2023-04-30T07:10:51;100064.34;;;16.76;57.71
67980;BME280;54760;47.490;19.030;2023-04-30T07:13:17;100063.53;;;17.03;57.16
67980;BME280;54760;47.490;19.030;2023-04-30T07:15:42;100060.47;;;16.92;57.35
67980;BME280;54760;47.490;19.030;2023-04-30T07:18:08;100060.63;;;16.79;57.54
67980;BME280;54760;47.490;19.030;2023-04-30T07:20:34;100064.59;;;16.96;57.71
67980;BME280;54760;47.490;19.030;2023-04-30T07:22:59;100071.37;;;17.04;57.57
67980;BME280;54760;47.490;19.030;2023-04-30T07:25:25;100066.47;;;16.99;57.83
67980;BME280;54760;47.490;19.030;2023-04-30T07:27:51;100070.16;;;17.05;57.81
67980;BME280;54760;47.490;19.030;2023-04-30T07:30:20;100070.75;;;16.91;57.27
67980;BME280;54760;47.490;19.030;2023-04-30T07:32:46;100070.28;;;16.56;58.72
67980;BME280;54760;47.490;19.030;2023-04-30T07:35:12;100075.06;;;16.65;58.55
67980;BME280;54760;47.490;19.030;2023-04-30T07:37:39;100081.34;;;16.56;58.36
67980;BME280;54760;47.490;19.030;2023-04-30T07:40:05;100069.69;;;16.88;58.03
67980;BME280;54760;47.490;19.030;2023-04-30T07:42:31;100070.00;;;17.00;57.02
67980;BME280;54760;47.490;19.030;2023-04-30T07:44:57;100064.00;;;17.01;56.42
67980;BME280;54760;47.490;19.030;2023-04-30T07:47:22;100069.66;;;17.16;56.24
67980;BME280;54760;47.490;19.030;2023-04-30T07:49:49;100070.41;;;17.35;55.57
67980;BME280;54760;47.490;19.030;2023-04-30T07:52:15;100072.50;;;17.49;55.31
67980;BME280;54760;47.490;19.030;2023-04-30T07:54:40;100080.06;;;17.30;55.26
67980;BME280;54760;47.490;19.030;2023-04-30T07:57:05;100089.44;;;17.42;55.26
67980;BME280;54760;47.490;19.030;2023-04-30T07:59:31;100088.50;;;17.36;55.17
67980;BME280;54760;47.490;19.030;2023-04-30T08:01:57;100080.50;;;17.47;55.08
67980;BME280;54760;47.490;19.030;2023-04-30T08:04:23;100089.16;;;17.82;53.96
67980;BME280;54760;47.490;19.030;2023-04-30T08:06:48;100090.34;;;17.90;53.81
67980;BME280;54760;47.490;19.030;2023-04-30T08:09:14;100089.25;;;17.96;52.83
67980;BME280;54760;47.490;19.030;2023-04-30T08:11:40;100096.16;;;17.68;52.95
67980;BME280;54760;47.490;19.030;2023-04-30T08:14:05;100101.34;;;17.75;53.37
67980;BME280;54760;47.490;19.030;2023-04-30T08:16:31;100098.59;;;17.66;53.40
67980;BME280;54760;47.490;19.030;2023-04-30T08:18:56;100098.47;;;17.51;53.55
67980;BME280;54760;47.490;19.030;2023-04-30T08:21:22;100083.31;;;17.28;53.74
67980;BME280;54760;47.490;19.030;2023-04-30T08:23:48;100094.66;;;17.49;53.40
67980;BME280;54760;47.490;19.030;2023-04-30T08:26:13;100086.19;;;17.43;53.57
67980;BME280;54760;47.490;19.030;2023-04-30T08:28:39;100093.34;;;17.77;53.11
67980;BME280;54760;47.490;19.030;2023-04-30T08:31:04;100096.72;;;17.81;52.78
67980;BME280;54760;47.490;19.030;2023-04-30T08:33:30;100091.37;;;18.01;52.62
67980;BME280;54760;47.490;19.030;2023-04-30T08:35:56;100100.53;;;18.16;50.73
67980;BME280;54760;47.490;19.030;2023-04-30T08:38:21;100095.72;;;18.50;49.17
67980;BME280;54760;47.490;19.030;2023-04-30T08:40:54;100087.50;;;18.79;48.98
67980;BME280;54760;47.490;19.030;2023-04-30T08:43:20;100094.78;;;18.91;49.17
67980;BME280;54760;47.490;19.030;2023-04-30T08:45:47;100091.87;;;18.56;49.10
67980;BME280;54760;47.490;19.030;2023-04-30T08:48:14;100089.22;;;18.77;48.57
67980;BME280;54760;47.490;19.030;2023-04-30T08:50:40;100086.69;;;19.02;48.05
67980;BME280;54760;47.490;19.030;2023-04-30T08:53:07;100101.69;;;18.81;47.35
67980;BME280;54760;47.490;19.030;2023-04-30T08:55:35;100091.78;;;19.19;46.67
67980;BME280;54760;47.490;19.030;2023-04-30T08:58:02;100090.84;;;19.51;45.46
67980;BME280;54760;47.490;19.030;2023-04-30T09:00:31;100089.00;;;19.19;46.37
67980;BME280;54760;47.490;19.030;2023-04-30T09:02:57;100082.22;;;19.05;46.59
67980;BME280;54760;47.490;19.030;2023-04-30T09:05:22;100083.44;;;19.04;46.57
67980;BME280;54760;47.490;19.030;2023-04-30T09:07:47;100074.00;;;19.25;46.27
67980;BME280;54760;47.490;19.030;2023-04-30T09:10:14;100069.94;;;19.41;45.80
67980;BME280;54760;47.490;19.030;2023-04-30T09:12:41;100081.47;;;19.49;45.07
67980;BME280;54760;47.490;19.030;2023-04-30T09:15:10;100083.72;;;19.79;44.74
67980;BME280;54760;47.490;19.030;2023-04-30T09:17:36;100075.69;;;19.81;44.87
67980;BME280;54760;47.490;19.030;2023-04-30T09:20:10;100085.25;;;19.80;44.22
67980;BME280;54760;47.490;19.030;2023-04-30T09:22:37;100080.31;;;20.05;43.30
67980;BME280;54760;47.490;19.030;2023-04-30T09:25:02;100077.78;;;20.21;43.50
67980;BME280;54760;47.490;19.030;2023-04-30T09:27:28;100073.81;;;20.08;43.91
67980;BME280;54760;47.490;19.030;2023-04-30T09:29:53;100066.34;;;19.64;44.58
67980;BME280;54760;47.490;19.030;2023-04-30T09:32:19;100065.56;;;19.78;44.15
67980;BME280;54760;47.490;19.030;2023-04-30T09:34:45;100071.03;;;20.08;42.52
67980;BME280;54760;47.490;19.030;2023-04-30T09:37:10;100071.16;;;20.19;42.54
67980;BME280;54760;47.490;19.030;2023-04-30T09:39:46;100071.72;;;20.03;43.34
67980;BME280;54760;47.490;19.030;2023-04-30T09:42:12;100062.91;;;20.24;42.83
67980;BME280;54760;47.490;19.030;2023-04-30T09:44:39;100054.19;;;20.52;42.95
67980;BME280;54760;47.490;19.030;2023-04-30T09:47:14;100054.44;;;20.74;41.59
67980;BME280;54760;47.490;19.030;2023-04-30T09:49:41;100056.66;;;21.16;39.95
67980;BME280;54760;47.490;19.030;2023-04-30T09:52:07;100058.09;;;21.11;39.66
67980;BME280;54760;47.490;19.030;2023-04-30T09:54:33;100047.78;;;20.92;39.64
67980;BME280;54760;47.490;19.030;2023-04-30T09:57:01;100054.91;;;21.18;39.58
67980;BME280;54760;47.490;19.030;2023-04-30T09:59:30;100048.59;;;21.18;39.22
67980;BME280;54760;47.490;19.030;2023-04-30T10:02:02;100053.03;;;21.10;39.90
67980;BME280;54760;47.490;19.030;2023-04-30T10:04:29;100053.34;;;21.43;39.13
67980;BME280;54760;47.490;19.030;2023-04-30T10:06:57;100054.78;;;21.96;37.50
67980;BME280;54760;47.490;19.030;2023-04-30T10:09:29;100052.66;;;22.22;37.49
67980;BME280;54760;47.490;19.030;2023-04-30T10:12:02;100059.09;;;21.97;37.47
67980;BME280;54760;47.490;19.030;2023-04-30T10:14:29;100057.03;;;21.60;37.83
67980;BME280;54760;47.490;19.030;2023-04-30T10:17:04;100049.56;;;21.78;37.61
67980;BME280;54760;47.490;19.030;2023-04-30T10:19:35;100046.03;;;21.46;37.75
67980;BME280;54760;47.490;19.030;2023-04-30T10:22:03;100037.37;;;21.38;37.67
67980;BME280;54760;47.490;19.030;2023-04-30T10:24:30;100039.69;;;21.45;37.63
67980;BME280;54760;47.490;19.030;2023-04-30T10:26:55;100044.00;;;21.78;36.97
67980;BME280;54760;47.490;19.030;2023-04-30T10:29:21;100039.09;;;21.98;36.78
67980;BME280;54760;47.490;19.030;2023-04-30T10:31:48;100037.72;;;21.88;36.47
67980;BME280;54760;47.490;19.030;2023-04-30T10:34:54;100040.25;;;22.34;35.77
67980;BME280;54760;47.490;19.030;2023-04-30T10:37:30;100042.38;;;22.51;34.76
67980;BME280;54760;47.490;19.030;2023-04-30T10:39:58;100046.31;;;22.98;34.38
67980;BME280;54760;47.490;19.030;2023-04-30T10:42:26;100038.97;;;23.00;33.97
67980;BME280;54760;47.490;19.030;2023-04-30T10:44:51;100046.97;;;22.65;34.83
67980;BME280;54760;47.490;19.030;2023-04-30T10:47:17;100036.50;;;22.48;35.26
67980;BME280;54760;47.490;19.030;2023-04-30T10:49:48;100036.66;;;22.82;34.97
67980;BME280;54760;47.490;19.030;2023-04-30T10:52:25;100043.50;;;22.92;34.66
67980;BME280;54760;47.490;19.030;2023-04-30T10:54:51;100044.03;;;23.07;34.52
67980;BME280;54760;47.490;19.030;2023-04-30T10:57:17;100045.06;;;23.26;34.38
67980;BME280;54760;47.490;19.030;2023-04-30T11:02:15;100047.88;;;22.39;35.96
67980;BME280;54760;47.490;19.030;2023-04-30T11:07:31;100037.34;;;22.07;36.31
67980;BME280;54760;47.490;19.030;2023-04-30T11:09:57;100034.69;;;22.34;36.11
67980;BME280;54760;47.490;19.030;2023-04-30T11:12:25;100026.69;;;22.64;35.13
67980;BME280;54760;47.490;19.030;2023-04-30T11:15:21;100031.84;;;22.99;34.64
67980;BME280;54760;47.490;19.030;2023-04-30T11:17:48;100029.03;;;22.82;34.51
67980;BME280;54760;47.490;19.030;2023-04-30T11:20:19;100030.56;;;22.83;34.67
67980;BME280;54760;47.490;19.030;2023-04-30T11:22:45;100033.50;;;22.52;35.22
67980;BME280;54760;47.490;19.030;2023-04-30T11:25:11;100033.44;;;22.35;35.79
67980;BME280;54760;47.490;19.030;2023-04-30T11:27:40;100037.44;;;22.29;35.98
67980;BME280;54760;47.490;19.030;2023-04-30T11:30:16;100040.00;;;22.27;35.84
67980;BME280;54760;47.490;19.030;2023-04-30T11:32:44;100036.56;;;22.00;36.17
67980;BME280;54760;47.490;19.030;2023-04-30T11:35:16;100037.22;;;22.32;35.74
67980;BME280;54760;47.490;19.030;2023-04-30T11:37:43;100033.91;;;22.28;35.97
67980;BME280;54760;47.490;19.030;2023-04-30T11:40:13;100036.63;;;22.71;35.04
67980;BME280;54760;47.490;19.030;2023-04-30T11:42:39;100026.87;;;22.44;35.42
67980;BME280;54760;47.490;19.030;2023-04-30T11:45:07;100038.41;;;22.15;35.92
67980;BME280;54760;47.490;19.030;2023-04-30T11:47:41;100037.06;;;22.04;36.08
67980;BME280;54760;47.490;19.030;2023-04-30T11:50:14;100038.75;;;22.39;35.74
67980;BME280;54760;47.490;19.030;2023-04-30T11:52:41;100039.84;;;22.53;35.28
67980;BME280;54760;47.490;19.030;2023-04-30T11:55:15;100032.28;;;22.70;35.23
67980;BME280;54760;47.490;19.030;2023-04-30T11:57:42;100033.66;;;22.97;35.32
67980;BME280;54760;47.490;19.030;2023-04-30T12:00:16;100032.34;;;22.81;34.81
67980;BME280;54760;47.490;19.030;2023-04-30T12:02:44;100034.63;;;22.77;35.37
67980;BME280;54760;47.490;19.030;2023-04-30T12:05:17;100024.75;;;22.87;35.01
67980;BME280;54760;47.490;19.030;2023-04-30T12:07:55;100028.81;;;23.03;34.81
67980;BME280;54760;47.490;19.030;2023-04-30T12:10:22;100020.94;;;23.12;34.61
67980;BME280;54760;47.490;19.030;2023-04-30T12:12:48;100019.06;;;22.65;35.19
67980;BME280;54760;47.490;19.030;2023-04-30T12:15:15;100017.31;;;22.62;34.93
67980;BME280;54760;47.490;19.030;2023-04-30T12:17:41;100022.41;;;22.10;35.98
67980;BME280;54760;47.490;19.030;2023-04-30T12:20:07;100021.88;;;22.06;35.61
67980;BME280;54760;47.490;19.030;2023-04-30T12:22:33;100017.19;;;22.34;35.40
67980;BME280;54760;47.490;19.030;2023-04-30T12:25:05;100012.44;;;22.45;34.91
67980;BME280;54760;47.490;19.030;2023-04-30T12:27:32;100014.94;;;22.43;35.02
67980;BME280;54760;47.490;19.030;2023-04-30T12:30:04;100013.50;;;22.65;34.85
67980;BME280;54760;47.490;19.030;2023-04-30T12:32:36;100019.41;;;22.19;34.75
67980;BME280;54760;47.490;19.030;2023-04-30T12:35:03;100009.03;;;22.25;35.18
67980;BME280;54760;47.490;19.030;2023-04-30T12:37:29;99996.25;;;22.61;34.26
67980;BME280;54760;47.490;19.030;2023-04-30T12:39:55;100004.19;;;22.96;33.89
67980;BME280;54760;47.490;19.030;2023-04-30T12:42:20;99994.56;;;23.08;33.52
67980;BME280;54760;47.490;19.030;2023-04-30T12:44:45;99988.72;;;23.33;33.26
67980;BME280;54760;47.490;19.030;2023-04-30T12:47:11;99988.97;;;23.30;32.53
67980;BME280;54760;47.490;19.030;2023-04-30T12:49:38;99988.75;;;23.11;32.90
67980;BME280;54760;47.490;19.030;2023-04-30T12:52:05;99991.28;;;23.26;33.48
67980;BME280;54760;47.490;19.030;2023-04-30T12:54:34;99987.69;;;23.37;33.13
67980;BME280;54760;47.490;19.030;2023-04-30T12:57:02;99991.25;;;22.98;33.28
67980;BME280;54760;47.490;19.030;2023-04-30T12:59:29;99994.03;;;22.98;33.62
67980;BME280;54760;47.490;19.030;2023-04-30T13:01:54;99988.75;;;23.11;33.51
67980;BME280;54760;47.490;19.030;2023-04-30T13:04:29;99978.31;;;23.40;32.65
67980;BME280;54760;47.490;19.030;2023-04-30T13:06:54;99984.13;;;22.75;33.67